Time;durP1;ratioP1;P1;durP2;ratioP2;P2;SDS_P1;SDS_P2;PMS_P1;PMS_P2;Temp;Humidity;BMP_temperature;BMP_pressure;BME280_temperature;BME280_humidity;BME280_pressure;Samples;Min_cycle;Max_cycle;Signal;HPM_P1;HPM_P2
2022/08/02 00:00:41;;;;;;;0.10;0.10;;;;;;;9.71;100.00;101892.47;10451523;28;20385;-73
2022/08/02 00:05:41;;;;;;;0.10;0.10;;;;;;;9.73;100.00;101882.56;10451211;28;20051;-73
2022/08/02 00:10:42;;;;;;;0.10;0.10;;;;;;;9.75;100.00;101876.16;10451374;28;20158;-73
2022/08/02 00:15:42;;;;;;;0.10;0.10;;;;;;;9.77;100.00;101873.34;10458326;28;20267;-73
2022/08/02 00:20:42;;;;;;;0.10;0.10;;;;;;;9.68;100.00;101872.28;10459610;28;20163;-73
2022/08/02 00:25:43;;;;;;;0.10;0.10;;;;;;;9.39;100.00;101874.69;10458295;28;20488;-73
2022/08/02 00:30:43;;;;;;;0.00;0.00;;;;;;;9.16;100.00;101879.25;10434578;28;20029;-73
2022/08/02 00:35:46;;;;;;;0.00;0.00;;;;;;;9.01;100.00;101883.97;10428923;28;20031;-73
2022/08/02 00:40:48;;;;;;;0.00;0.00;;;;;;;8.80;100.00;101883.03;10446904;28;20017;-73
2022/08/02 00:45:48;;;;;;;0.00;0.00;;;;;;;8.68;100.00;101900.78;10440757;28;20026;-73
2022/08/02 00:50:49;;;;;;;0.00;0.00;;;;;;;8.57;100.00;101904.28;10432211;28;20020;-73
2022/08/02 00:55:49;;;;;;;0.10;0.10;;;;;;;8.55;100.00;101898.25;10426454;28;20056;-73
2022/08/02 01:00:49;;;;;;;0.00;0.00;;;;;;;8.50;100.00;101905.72;10432368;28;20031;-73
2022/08/02 01:05:50;;;;;;;0.00;0.00;;;;;;;8.38;100.00;101904.88;10447768;28;20461;-73
2022/08/02 01:10:50;;;;;;;0.10;0.10;;;;;;;8.39;100.00;101897.75;10436517;28;20024;-73
2022/08/02 01:16:14;;;;;;;0.00;0.00;;;;;;;8.42;100.00;101896.66;10412635;28;20030;-73
2022/08/02 01:21:33;;;;;;;;;;;;;;;8.59;100.00;101898.84;10416040;28;20072;-73
2022/08/02 01:26:45;;;;;;;0.00;0.00;;;;;;;8.45;100.00;101899.94;10413716;28;20324;-73
2022/08/02 01:32:09;;;;;;;0.00;0.00;;;;;;;8.27;100.00;101898.66;10415376;28;20043;-73
2022/08/02 01:37:16;;;;;;;0.00;0.00;;;;;;;8.15;100.00;101900.47;10414836;28;20072;-73
2022/08/02 01:42:19;;;;;;;0.00;0.00;;;;;;;8.09;100.00;101914.19;10415187;28;20029;-73
2022/08/02 01:47:27;;;;;;;0.00;0.00;;;;;;;8.01;100.00;101917.41;10418761;28;20017;-73
2022/08/02 01:52:31;;;;;;;0.00;0.00;;;;;;;7.93;100.00;101920.63;10414584;28;20469;-73
2022/08/02 01:57:47;;;;;;;0.00;0.00;;;;;;;7.85;100.00;101924.81;10414182;28;20038;-73
2022/08/02 02:02:51;;;;;;;0.00;0.00;;;;;;;7.76;100.00;101912.25;10414168;28;20029;-73
2022/08/02 02:07:55;;;;;;;0.00;0.00;;;;;;;7.70;100.00;101917.03;10414884;28;20037;-73
2022/08/02 02:13:02;;;;;;;0.00;0.00;;;;;;;7.60;100.00;101908.09;10413919;28;20036;-73
2022/08/02 02:18:05;;;;;;;0.10;0.10;;;;;;;7.53;100.00;101900.69;10426572;28;20469;-73
2022/08/02 02:23:05;;;;;;;0.00;0.00;;;;;;;7.58;100.00;101896.75;10412807;28;20207;-73
2022/08/02 02:28:11;;;;;;;0.00;0.00;;;;;;;7.48;100.00;101887.78;10418110;28;20027;-73
2022/08/02 02:33:13;;;;;;;0.00;0.00;;;;;;;7.37;100.00;101891.22;10452318;28;20147;-73
2022/08/02 02:38:16;;;;;;;0.00;0.00;;;;;;;7.32;100.00;101884.56;10427478;28;20072;-73
2022/08/02 02:43:18;;;;;;;0.10;0.10;;;;;;;7.25;100.00;101892.13;10416793;28;20144;-73
2022/08/02 02:48:18;;;;;;;0.00;0.00;;;;;;;7.19;100.00;101879.31;10423403;28;20101;-73
2022/08/02 02:53:20;;;;;;;0.00;0.00;;;;;;;7.20;100.00;101876.53;10416329;28;20112;-73
2022/08/02 02:58:21;;;;;;;0.00;0.00;;;;;;;7.25;100.00;101877.06;10414627;28;20061;-73
2022/08/02 03:03:22;;;;;;;0.00;0.00;;;;;;;7.37;100.00;101874.47;10424699;28;20110;-73
2022/08/02 03:08:22;;;;;;;0.10;0.10;;;;;;;7.32;100.00;101873.97;10423663;28;20041;-73
2022/08/02 03:13:23;;;;;;;0.00;0.00;;;;;;;7.28;100.00;101865.41;10428450;28;20096;-73
2022/08/02 03:18:33;;;;;;;0.00;0.00;;;;;;;7.30;100.00;101868.78;10407243;28;20076;-73
2022/08/02 03:23:34;;;;;;;0.00;0.00;;;;;;;7.46;100.00;101856.09;10409590;28;20485;-73
2022/08/02 03:28:35;;;;;;;0.00;0.00;;;;;;;7.64;100.00;101863.63;10408564;28;20033;-73
2022/08/02 03:33:36;;;;;;;0.00;0.00;;;;;;;7.49;100.00;101863.81;10409516;28;20029;-73
2022/08/02 03:38:37;;;;;;;0.03;0.03;;;;;;;7.51;100.00;101849.63;10410932;28;20029;-73
2022/08/02 03:43:39;;;;;;;0.00;0.00;;;;;;;7.54;100.00;101855.53;10410650;28;20022;-73
2022/08/02 03:48:41;;;;;;;0.00;0.00;;;;;;;7.66;100.00;101859.06;10429792;28;20348;-73
2022/08/02 03:53:41;;;;;;;0.00;0.00;;;;;;;7.81;100.00;101859.72;10449105;28;20341;-73
2022/08/02 03:58:41;;;;;;;0.00;0.00;;;;;;;7.96;100.00;101852.41;10451387;28;20357;-73
2022/08/02 04:03:42;;;;;;;0.00;0.00;;;;;;;8.12;100.00;101868.84;10451371;28;20427;-73
2022/08/02 04:08:42;;;;;;;0.10;0.10;;;;;;;8.08;100.00;101870.88;10449897;28;20040;-73
2022/08/02 04:13:42;;;;;;;0.00;0.00;;;;;;;8.12;100.00;101882.97;10450917;28;20025;-73
2022/08/02 04:18:52;;;;;;;0.00;0.00;;;;;;;8.13;100.00;101876.66;10434332;28;20083;-73
2022/08/02 04:23:55;;;;;;;0.00;0.00;;;;;;;8.30;100.00;101877.19;10449666;28;20025;-73
2022/08/02 04:28:56;;;;;;;0.00;0.00;;;;;;;8.35;100.00;101880.34;10450785;28;20025;-73
2022/08/02 04:33:57;;;;;;;0.00;0.00;;;;;;;8.46;100.00;101883.03;10450679;28;20108;-73
2022/08/02 04:38:58;;;;;;;0.03;0.03;;;;;;;8.44;100.00;101884.13;10449581;28;20464;-73
2022/08/02 04:43:58;;;;;;;0.00;0.00;;;;;;;8.36;100.00;101880.22;10449205;28;20480;-73
2022/08/02 04:48:59;;;;;;;0.00;0.00;;;;;;;9.07;100.00;101878.19;10446917;28;20547;-73
2022/08/02 04:53:59;;;;;;;0.10;0.10;;;;;;;12.04;100.00;101866.63;10449993;28;20588;-74
2022/08/02 04:59:00;;;;;;;0.10;0.10;;;;;;;14.56;100.00;101871.31;10452349;28;20078;-74
2022/08/02 05:04:00;;;;;;;0.10;0.10;;;;;;;16.77;100.00;101885.78;10489798;28;20033;-74
2022/08/02 05:09:00;;;;;;;0.10;0.10;;;;;;;18.71;100.00;101885.47;10457716;28;20472;-74
2022/08/02 05:14:01;;;;;;;0.10;0.10;;;;;;;20.25;94.93;101894.16;10457216;28;20432;-74
2022/08/02 05:19:02;;;;;;;0.10;0.10;;;;;;;21.44;86.37;101883.13;10445695;28;20090;-74
2022/08/02 05:24:02;;;;;;;0.00;0.00;;;;;;;22.33;77.61;101895.44;10457271;28;20461;-74
2022/08/02 05:29:03;;;;;;;0.10;0.10;;;;;;;22.69;77.64;101897.69;10457136;28;20451;-74
2022/08/02 05:34:03;;;;;;;0.10;0.10;;;;;;;23.41;71.76;101892.97;10456180;28;20025;-74
2022/08/02 05:39:04;;;;;;;0.00;0.00;;;;;;;23.48;69.25;101888.31;10456823;28;20040;-74
2022/08/02 05:44:04;;;;;;;0.00;0.00;;;;;;;22.76;72.14;101881.34;10456091;28;20082;-74
2022/08/02 05:49:04;;;;;;;0.03;0.03;;;;;;;22.70;72.16;101898.50;10416632;28;20060;-74
2022/08/02 05:54:11;;;;;;;0.10;0.10;;;;;;;22.32;74.15;101888.38;10414424;28;20025;-74
2022/08/02 05:59:23;;;;;;;0.10;0.10;;;;;;;23.34;72.05;101886.75;10414352;28;20038;-74
2022/08/02 06:04:25;;;;;;;;;;;;;;;23.75;69.78;101896.31;10414432;28;20052;-74
2022/08/02 06:09:26;;;;;;;0.00;0.00;;;;;;;23.84;70.45;101892.28;10413352;28;19916;-73
2022/08/02 06:14:29;;;;;;;0.10;0.10;;;;;;;24.90;66.98;101908.63;10414310;28;20025;-73
2022/08/02 06:19:31;;;;;;;0.10;0.10;;;;;;;25.24;65.40;101912.63;10430476;28;20480;-73
2022/08/02 06:24:33;;;;;;;0.10;0.10;;;;;;;25.59;63.65;101907.28;10413940;28;20024;-73
2022/08/02 06:29:35;;;;;;;0.10;0.10;;;;;;;26.17;61.21;101894.81;10413524;28;20033;-74
2022/08/02 06:34:37;;;;;;;0.10;0.10;;;;;;;25.49;62.01;101886.03;10413159;28;20295;-73
2022/08/02 06:39:45;;;;;;;;;;;;;;;24.93;62.49;101879.03;10412380;28;20080;-73
2022/08/02 06:44:46;;;;;;;0.10;0.10;;;;;;;24.79;63.63;101853.84;10412756;28;19909;-73
2022/08/02 06:49:46;;;;;;;0.10;0.10;;;;;;;24.75;62.38;101847.16;10442333;28;20023;-74
2022/08/02 06:54:46;;;;;;;0.10;0.10;;;;;;;24.24;64.70;101855.72;10453769;28;20035;-74
2022/08/02 06:59:47;;;;;;;0.10;0.10;;;;;;;24.27;60.73;101861.53;10453793;28;20059;-74
2022/08/02 07:04:48;;;;;;;0.10;0.10;;;;;;;24.23;63.00;101859.47;10453215;28;20510;-74
2022/08/02 07:09:50;;;;;;;0.10;0.10;;;;;;;25.06;60.13;101859.75;10451474;28;20369;-74
2022/08/02 07:14:50;;;;;;;0.10;0.10;;;;;;;25.43;58.48;101867.88;10452880;28;20397;-74
2022/08/02 07:19:50;;;;;;;0.00;0.00;;;;;;;24.77;56.76;101868.75;10422189;28;20033;-74
2022/08/02 07:24:52;;;;;;;0.10;0.10;;;;;;;24.68;61.36;101867.41;10411170;28;20025;-74
2022/08/02 07:29:52;;;;;;;0.03;0.03;;;;;;;24.76;56.69;101859.75;10410254;28;20044;-74
2022/08/02 07:34:53;;;;;;;0.10;0.10;;;;;;;24.39;57.63;101870.59;10411722;28;20033;-74
2022/08/02 07:39:54;;;;;;;0.10;0.10;;;;;;;24.98;58.92;101860.06;10410747;28;20504;-74
2022/08/02 07:44:54;;;;;;;0.10;0.10;;;;;;;25.66;57.39;101853.44;10407710;28;20029;-74
2022/08/02 07:49:55;;;;;;;0.10;0.10;;;;;;;25.47;56.09;101844.50;10384890;28;20507;-74
2022/08/02 07:54:55;;;;;;;0.10;0.10;;;;;;;24.99;58.65;101828.22;10369402;28;20034;-73
2022/08/02 07:59:55;;;;;;;0.10;0.10;;;;;;;24.32;58.61;101834.47;10369358;28;20398;-73
2022/08/02 08:04:56;;;;;;;0.10;0.10;;;;;;;24.09;59.41;101812.53;10369221;28;20345;-73
2022/08/02 08:09:57;;;;;;;0.10;0.10;;;;;;;23.51;64.64;101805.47;10369355;28;20512;-73
2022/08/02 08:14:57;;;;;;;0.00;0.00;;;;;;;23.52;64.74;101814.47;10371187;28;20544;-74
2022/08/02 08:19:58;;;;;;;0.10;0.10;;;;;;;24.17;64.84;101804.91;10426610;28;20075;-73
2022/08/02 08:24:58;;;;;;;0.10;0.10;;;;;;;23.95;62.34;101801.75;10409624;28;20018;-74
2022/08/02 08:29:58;;;;;;;0.10;0.10;;;;;;;24.51;62.74;101805.34;10409983;28;20018;-73
2022/08/02 08:34:59;;;;;;;0.10;0.10;;;;;;;24.13;59.20;101791.94;10413365;28;20033;-73
2022/08/02 08:39:59;;;;;;;0.10;0.10;;;;;;;23.54;65.23;101796.06;10418894;28;20029;-73
2022/08/02 08:44:59;;;;;;;0.10;0.10;;;;;;;23.92;62.17;101795.94;10417910;28;20022;-73
2022/08/02 08:50:29;;;;;;;0.10;0.10;;;;;;;24.38;62.11;101784.53;10457378;28;20028;-73
2022/08/02 08:55:31;;;;;;;0.00;0.00;;;;;;;24.48;62.30;101781.31;10449329;28;20037;-73
2022/08/02 09:00:34;;;;;;;0.10;0.10;;;;;;;24.78;60.25;101781.34;10458154;28;20016;-72
2022/08/02 09:05:40;;;;;;;0.05;0.05;;;;;;;24.58;58.32;101770.72;10457904;28;20032;-73
2022/08/02 09:10:42;;;;;;;0.00;0.00;;;;;;;25.10;60.33;101767.44;10457281;28;20025;-73
2022/08/02 09:15:51;;;;;;;0.10;0.10;;;;;;;25.43;58.42;101766.13;10454227;28;20020;-73
2022/08/02 09:21:03;;;;;;;0.10;0.10;;;;;;;25.25;58.83;101767.88;10456422;28;20284;-73
2022/08/02 09:26:06;;;;;;;0.00;0.00;;;;;;;25.31;58.09;101766.13;10457501;28;20037;-73
2022/08/02 09:31:08;;;;;;;0.10;0.10;;;;;;;25.85;58.26;101758.69;10457135;28;20067;-73
2022/08/02 09:36:14;;;;;;;0.10;0.10;;;;;;;25.75;55.04;101769.34;10489347;28;20056;-73
2022/08/02 09:41:23;;;;;;;0.10;0.10;;;;;;;25.68;55.77;101758.53;10457048;28;20028;-73
2022/08/02 09:46:26;;;;;;;0.10;0.10;;;;;;;25.53;53.22;101752.72;10452854;28;20033;-73
2022/08/02 09:51:31;;;;;;;0.00;0.00;;;;;;;25.58;53.08;101746.56;10456792;28;20025;-73
2022/08/02 09:56:42;;;;;;;0.00;0.00;;;;;;;25.75;54.89;101761.16;10456668;28;20025;-74
2022/08/02 10:01:43;;;;;;;0.10;0.10;;;;;;;25.69;51.75;101749.31;10456220;28;20021;-74
2022/08/02 10:06:44;;;;;;;0.00;0.00;;;;;;;25.92;53.92;101753.13;10456086;28;20040;-74
2022/08/02 10:11:44;;;;;;;0.00;0.00;;;;;;;26.19;51.49;101753.41;10454452;28;20075;-74
2022/08/02 10:16:44;;;;;;;0.00;0.00;;;;;;;26.32;50.49;101749.56;10442670;28;20030;-74
2022/08/02 10:21:51;;;;;;;0.10;0.10;;;;;;;26.39;52.88;101748.38;10452046;28;20021;-74
2022/08/02 10:26:52;;;;;;;0.00;0.00;;;;;;;26.35;51.13;101741.72;10455276;28;20466;-74
2022/08/02 10:32:08;;;;;;;0.10;0.10;;;;;;;26.22;49.72;101739.28;10454742;28;20147;-74
2022/08/02 10:37:10;;;;;;;0.10;0.10;;;;;;;26.25;49.87;101740.69;10454424;28;20028;-74
2022/08/02 10:42:31;;;;;;;0.10;0.10;;;;;;;26.40;52.32;101727.34;10454813;28;20481;-74
2022/08/02 10:47:31;;;;;;;0.10;0.10;;;;;;;26.23;47.27;101712.81;10437236;28;20101;-74
2022/08/02 10:52:32;;;;;;;0.10;0.10;;;;;;;25.96;46.94;101705.16;10453521;28;20495;-74
2022/08/02 10:57:34;;;;;;;0.10;0.10;;;;;;;25.96;50.75;101699.69;10453217;28;20032;-74
2022/08/02 11:02:42;;;;;;;0.00;0.00;;;;;;;25.97;50.92;101702.16;10453634;28;20337;-73
2022/08/02 11:07:48;;;;;;;0.00;0.00;;;;;;;25.82;50.31;101699.13;10452996;28;20032;-74
2022/08/02 11:12:57;;;;;;;0.10;0.10;;;;;;;25.91;50.99;101696.84;10452956;28;20394;-73
2022/08/02 11:17:58;;;;;;;0.00;0.00;;;;;;;25.91;48.38;101691.41;10444327;28;20033;-74
2022/08/02 11:23:37;;;;;;;0.00;0.00;;;;;;;25.84;50.74;101682.53;10452799;28;20456;-74
2022/08/02 11:28:37;;;;;;;0.10;0.10;;;;;;;25.99;47.68;101682.84;10452879;28;20023;-74
2022/08/02 11:33:38;;;;;;;0.00;0.00;;;;;;;25.92;51.27;101682.97;10452037;28;20029;-74
2022/08/02 11:38:39;;;;;;;0.10;0.10;;;;;;;25.88;50.16;101676.31;10451966;28;20128;-74
2022/08/02 11:43:39;;;;;;;0.00;0.00;;;;;;;25.91;48.61;101664.94;10451908;28;20024;-74
2022/08/02 11:48:41;;;;;;;0.00;0.00;;;;;;;26.09;48.92;101672.16;10439013;28;20115;-74
2022/08/02 11:53:52;;;;;;;0.03;0.03;;;;;;;26.15;48.18;101665.72;10410422;28;20061;-74
2022/08/02 11:59:09;;;;;;;0.10;0.10;;;;;;;26.24;49.07;101657.09;10410299;28;20104;-74
2022/08/02 12:04:09;;;;;;;0.00;0.00;;;;;;;26.22;47.84;101653.81;10409828;28;20295;-74
2022/08/02 12:09:12;;;;;;;0.10;0.10;;;;;;;26.23;47.75;101639.91;10409160;28;20029;-74
2022/08/02 12:14:12;;;;;;;0.00;0.00;;;;;;;26.16;50.29;101640.06;10410576;28;20032;-72
2022/08/02 12:19:19;;;;;;;0.08;0.08;;;;;;;26.35;50.29;101631.66;10409505;28;20397;-73
2022/08/02 12:24:27;;;;;;;0.03;0.03;;;;;;;26.61;51.56;101632.97;10409381;28;20021;-73
2022/08/02 12:29:47;;;;;;;0.10;0.10;;;;;;;26.72;49.48;101620.31;10408263;28;20075;-73
2022/08/02 12:35:00;;;;;;;0.10;0.10;;;;;;;26.71;47.90;101622.22;10409255;28;20476;-73
2022/08/02 12:40:20;;;;;;;0.00;0.00;;;;;;;26.56;48.35;101617.34;10409521;28;20083;-73
2022/08/02 12:45:21;;;;;;;0.00;0.00;;;;;;;26.09;44.44;101612.09;10404091;28;20022;-73
2022/08/02 12:50:35;;;;;;;0.00;0.00;;;;;;;26.02;48.93;101613.28;10394499;28;20388;-73
2022/08/02 12:55:47;;;;;;;0.00;0.00;;;;;;;26.10;49.32;101621.09;10408580;28;20053;-74
2022/08/02 13:00:56;;;;;;;0.10;0.10;;;;;;;26.18;49.70;101610.59;10408020;28;20469;-74
2022/08/02 13:05:57;;;;;;;0.00;0.00;;;;;;;26.25;47.92;101610.44;10408337;28;20034;-74
2022/08/02 13:10:57;;;;;;;0.00;0.00;;;;;;;26.52;49.76;101604.41;10408810;28;20028;-74
2022/08/02 13:15:58;;;;;;;0.00;0.00;;;;;;;26.68;53.96;101610.97;10415122;28;20056;-73
2022/08/02 13:20:58;;;;;;;0.00;0.00;;;;;;;26.75;49.39;101606.16;10453314;28;20024;-74
2022/08/02 13:25:59;;;;;;;0.00;0.00;;;;;;;26.77;53.61;101602.09;10457016;28;20033;-73
2022/08/02 13:31:00;;;;;;;0.03;0.03;;;;;;;26.79;54.05;101596.38;10456682;28;20025;-73
2022/08/02 13:36:00;;;;;;;0.00;0.00;;;;;;;26.87;54.30;101590.50;10456719;28;20067;-73
2022/08/02 13:41:11;;;;;;;0.00;0.00;;;;;;;26.92;57.59;101581.56;10456380;28;20528;-74
2022/08/02 13:46:11;;;;;;;0.00;0.00;;;;;;;26.96;57.18;101574.50;10449170;28;20084;-73
2022/08/02 13:51:12;;;;;;;0.00;0.00;;;;;;;26.89;55.59;101571.13;10422321;28;20072;-74
2022/08/02 13:56:12;;;;;;;0.10;0.10;;;;;;;26.87;58.06;101572.19;10413453;28;20496;-73
2022/08/02 14:01:13;;;;;;;0.00;0.00;;;;;;;26.98;54.49;101572.34;10414558;28;20049;-73
2022/08/02 14:06:13;;;;;;;0.00;0.00;;;;;;;26.89;53.84;101566.47;10412759;28;20045;-73
2022/08/02 14:11:14;;;;;;;0.00;0.00;;;;;;;26.80;57.52;101560.59;10411821;28;20036;-74
2022/08/02 14:16:14;;;;;;;0.10;0.10;;;;;;;26.63;59.12;101551.59;10412311;28;20040;-73
2022/08/02 14:21:14;;;;;;;0.00;0.00;;;;;;;26.66;62.43;101545.63;10452688;28;20309;-73
2022/08/02 14:26:15;;;;;;;0.03;0.03;;;;;;;26.80;58.79;101546.94;10452527;28;20021;-73
2022/08/02 14:31:15;;;;;;;0.10;0.10;;;;;;;26.83;56.89;101551.09;10451200;28;20385;-74
2022/08/02 14:36:15;;;;;;;0.00;0.00;;;;;;;26.81;56.09;101554.03;10452366;28;20040;-74
2022/08/02 14:41:16;;;;;;;0.10;0.10;;;;;;;26.79;58.21;101544.44;10452266;28;20538;-73
2022/08/02 14:46:16;;;;;;;0.00;0.00;;;;;;;26.75;58.50;101549.59;10438732;28;20021;-73
2022/08/02 14:51:16;;;;;;;0.10;0.10;;;;;;;26.66;55.93;101536.59;10410145;28;20061;-73
2022/08/02 14:56:16;;;;;;;0.00;0.00;;;;;;;26.69;58.78;101528.72;10410174;28;20063;-73
2022/08/02 15:01:17;;;;;;;0.00;0.00;;;;;;;26.81;57.84;101523.97;10410318;28;20033;-72
2022/08/02 15:06:17;;;;;;;0.00;0.00;;;;;;;26.88;60.64;101512.91;10374173;28;1067789;-73
2022/08/02 15:11:18;;;;;;;0.10;0.10;;;;;;;26.89;60.39;101503.59;10411705;28;20030;-73
2022/08/02 15:16:18;;;;;;;0.00;0.00;;;;;;;26.84;59.00;101504.34;10411467;28;20032;-73
2022/08/02 15:21:18;;;;;;;0.03;0.03;;;;;;;26.69;58.64;101495.13;10411229;28;20039;-73
2022/08/02 15:26:19;;;;;;;0.00;0.00;;;;;;;26.40;59.84;101497.91;10411077;28;20039;-73
2022/08/02 15:31:20;;;;;;;0.00;0.00;;;;;;;26.09;62.31;101491.97;10409717;28;20053;-73
2022/08/02 15:36:21;;;;;;;0.10;0.10;;;;;;;25.86;62.39;101495.66;10410856;28;20498;-73
2022/08/02 15:41:21;;;;;;;0.00;0.00;;;;;;;25.80;62.09;101493.84;10410745;28;20260;-73
2022/08/02 15:46:22;;;;;;;0.00;0.00;;;;;;;25.77;62.94;101491.59;10412060;28;20538;-73
2022/08/02 15:51:22;;;;;;;0.00;0.00;;;;;;;25.75;63.98;101491.03;10429486;28;20037;-73
2022/08/02 15:56:22;;;;;;;0.00;0.00;;;;;;;25.69;63.97;101471.00;10428015;28;20087;-73
2022/08/02 16:01:23;;;;;;;0.00;0.00;;;;;;;25.70;66.96;101475.38;10432211;28;20220;-73
2022/08/02 16:06:23;;;;;;;0.00;0.00;;;;;;;25.70;69.13;101475.38;10425204;28;20419;-73
2022/08/02 16:11:23;;;;;;;0.00;0.00;;;;;;;25.66;69.23;101476.13;10438259;28;20025;-74
2022/08/02 16:16:29;;;;;;;0.00;0.00;;;;;;;25.54;69.48;101468.00;10430247;28;20120;-73
2022/08/02 16:21:29;;;;;;;0.00;0.00;;;;;;;25.44;69.17;101473.25;10409562;28;20059;-72
2022/08/02 16:26:32;;;;;;;0.00;0.00;;;;;;;25.25;68.50;101473.44;10429995;28;20060;-72
2022/08/02 16:31:33;;;;;;;0.00;0.00;;;;;;;25.05;71.00;101464.78;10430665;28;20021;-72
2022/08/02 16:36:33;;;;;;;0.00;0.00;;;;;;;24.92;71.62;101465.88;10420219;28;20066;-73
2022/08/02 16:41:33;;;;;;;0.10;0.10;;;;;;;24.83;74.87;101459.13;10435868;28;20020;-73
2022/08/02 16:46:34;;;;;;;0.00;0.00;;;;;;;24.76;73.74;101456.53;10419695;28;20072;-73
2022/08/02 16:51:34;;;;;;;0.00;0.00;;;;;;;24.74;75.15;101458.66;10428285;28;20044;-72
2022/08/02 16:56:34;;;;;;;0.00;0.00;;;;;;;24.75;74.01;101438.53;10437763;28;20029;-73
2022/08/02 17:01:35;;;;;;;0.00;0.00;;;;;;;24.83;77.46;101446.34;10429510;28;20055;-74
2022/08/02 17:06:35;;;;;;;0.00;0.00;;;;;;;24.87;74.98;101449.44;10433835;28;20028;-73
2022/08/02 17:11:36;;;;;;;0.00;0.00;;;;;;;24.88;74.20;101458.44;10438488;28;20025;-73
2022/08/02 17:16:36;;;;;;;0.00;0.00;;;;;;;24.88;74.58;101445.63;10446054;28;20060;-74
2022/08/02 17:21:36;;;;;;;0.00;0.00;;;;;;;24.91;75.11;101447.03;10442784;28;20017;-72
2022/08/02 17:26:37;;;;;;;0.00;0.00;;;;;;;24.90;75.34;101440.78;10428739;28;20377;-73
2022/08/02 17:31:37;;;;;;;0.00;0.00;;;;;;;24.84;74.91;101445.28;10438952;28;20025;-73
2022/08/02 17:36:37;;;;;;;0.10;0.10;;;;;;;24.77;75.47;101438.28;10437559;28;20029;-75
2022/08/02 17:41:38;;;;;;;0.00;0.00;;;;;;;24.72;77.29;101432.72;10435354;28;20492;-72
2022/08/02 17:46:38;;;;;;;0.10;0.10;;;;;;;24.61;78.06;101428.97;10432172;28;20021;-74
2022/08/02 17:51:38;;;;;;;0.00;0.00;;;;;;;24.50;79.55;101436.06;10426845;28;20022;-72
2022/08/02 17:56:39;;;;;;;0.00;0.00;;;;;;;24.37;78.81;101441.69;10439676;28;20446;-72
2022/08/02 18:01:41;;;;;;;0.00;0.00;;;;;;;24.26;80.94;101439.78;10427504;28;20067;-72
2022/08/02 18:06:50;;;;;;;0.00;0.00;;;;;;;24.14;81.11;101443.34;10435022;28;20031;-73
2022/08/02 18:11:51;;;;;;;0.00;0.00;;;;;;;24.11;81.25;101437.53;10435421;28;20107;-73
2022/08/02 18:16:51;;;;;;;0.00;0.00;;;;;;;24.05;82.53;101452.91;10441137;28;20013;-73
2022/08/02 18:21:51;;;;;;;0.00;0.00;;;;;;;23.95;79.76;101447.22;10426844;28;20017;-73
2022/08/02 18:26:52;;;;;;;0.10;0.10;;;;;;;23.84;82.79;101442.56;10440817;28;20020;-73
2022/08/02 18:31:52;;;;;;;0.00;0.00;;;;;;;23.71;82.53;101459.94;10433721;28;20048;-73
2022/08/02 18:36:52;;;;;;;0.00;0.00;;;;;;;23.62;83.40;101451.22;10429387;28;20060;-72
2022/08/02 18:41:53;;;;;;;0.00;0.00;;;;;;;23.52;85.02;101456.38;10423899;28;20025;-72
2022/08/02 18:46:54;;;;;;;0.00;0.00;;;;;;;23.40;87.40;101456.31;10447447;28;20031;-72
2022/08/02 18:51:54;;;;;;;0.00;0.00;;;;;;;23.29;86.87;101457.09;10440979;28;20087;-72
2022/08/02 18:56:55;;;;;;;0.00;0.00;;;;;;;23.18;91.89;101460.56;10424850;28;20522;-72
2022/08/02 19:01:55;;;;;;;0.00;0.00;;;;;;;23.07;89.78;101469.47;10449714;28;20494;-72
2022/08/02 19:06:57;;;;;;;0.00;0.00;;;;;;;22.95;90.16;101463.97;10423826;28;20029;-73
2022/08/02 19:12:02;;;;;;;0.00;0.00;;;;;;;22.89;90.27;101473.00;10429121;28;20022;-72
2022/08/02 19:17:02;;;;;;;0.00;0.00;;;;;;;22.82;93.71;101470.34;10445667;28;20388;-73
2022/08/02 19:22:03;;;;;;;0.00;0.00;;;;;;;22.74;92.13;101471.47;10436525;28;20024;-73
2022/08/02 19:27:04;;;;;;;0.00;0.00;;;;;;;22.70;91.96;101467.56;10419243;28;20088;-73
2022/08/02 19:32:04;;;;;;;0.00;0.00;;;;;;;22.62;91.68;101467.84;10439345;28;20075;-72
2022/08/02 19:37:05;;;;;;;0.00;0.00;;;;;;;22.55;92.86;101472.50;10435427;28;20031;-72
2022/08/02 19:42:05;;;;;;;0.00;0.00;;;;;;;22.48;92.97;101469.84;10439223;28;20048;-74
2022/08/02 19:47:05;;;;;;;0.10;0.10;;;;;;;22.43;94.67;101479.69;10435187;28;20021;-74
2022/08/02 19:52:08;;;;;;;0.10;0.10;;;;;;;22.35;96.44;101478.09;10445130;28;20036;-74
2022/08/02 19:57:08;;;;;;;0.00;0.00;;;;;;;22.25;99.55;101486.75;10429902;28;20514;-74
2022/08/02 20:02:09;;;;;;;0.10;0.10;;;;;;;22.16;99.61;101496.16;10451134;28;20021;-74
2022/08/02 20:07:09;;;;;;;0.00;0.00;;;;;;;22.09;100.00;101489.97;10409064;28;20079;-73
2022/08/02 20:12:09;;;;;;;0.00;0.00;;;;;;;21.91;100.00;101483.41;10425416;28;20086;-73
2022/08/02 20:17:10;;;;;;;0.00;0.00;;;;;;;21.84;100.00;101485.31;10433886;28;20021;-74
2022/08/02 20:22:12;;;;;;;0.10;0.10;;;;;;;21.73;100.00;101493.28;10446112;28;20023;-73
2022/08/02 20:27:12;;;;;;;0.10;0.10;;;;;;;21.65;100.00;101494.41;10432721;28;20024;-74
2022/08/02 20:32:20;;;;;;;0.10;0.10;;;;;;;21.60;100.00;101491.50;10430445;28;20025;-74
2022/08/02 20:37:20;;;;;;;0.10;0.10;;;;;;;21.51;100.00;101493.63;10426323;28;20495;-74
2022/08/02 20:42:21;;;;;;;0.00;0.00;;;;;;;21.40;100.00;101481.56;10443376;28;20169;-73
2022/08/02 20:47:22;;;;;;;0.10;0.10;;;;;;;21.32;100.00;101481.81;10428161;28;20029;-73
2022/08/02 20:52:22;;;;;;;0.00;0.00;;;;;;;21.27;100.00;101478.06;10454768;28;20171;-73
2022/08/02 20:57:22;;;;;;;0.10;0.10;;;;;;;21.18;100.00;101472.06;10422668;28;20061;-73
2022/08/02 21:02:22;;;;;;;0.00;0.00;;;;;;;21.08;100.00;101475.19;10435279;28;20032;-72
2022/08/02 21:07:23;;;;;;;0.10;0.10;;;;;;;21.00;100.00;101473.56;10457798;28;20492;-73
2022/08/02 21:12:24;;;;;;;0.10;0.10;;;;;;;20.96;100.00;101480.44;10439146;28;20514;-72
2022/08/02 21:17:24;;;;;;;0.00;0.00;;;;;;;20.91;100.00;101472.09;10454257;28;20112;-73
2022/08/02 21:22:24;;;;;;;0.00;0.00;;;;;;;20.82;100.00;101480.69;10444415;28;20016;-73
2022/08/02 21:27:25;;;;;;;0.00;0.00;;;;;;;20.68;100.00;101472.59;10437860;28;20033;-73
2022/08/02 21:32:25;;;;;;;0.08;0.08;;;;;;;20.53;100.00;101472.78;10439908;28;20472;-73
2022/08/02 21:37:26;;;;;;;0.00;0.00;;;;;;;20.36;100.00;101476.94;10444304;28;20024;-73
2022/08/02 21:42:26;;;;;;;0.10;0.10;;;;;;;20.25;100.00;101473.00;10439610;28;20292;-73
2022/08/02 21:47:26;;;;;;;0.00;0.00;;;;;;;20.17;100.00;101469.66;10442726;28;20025;-73
2022/08/02 21:52:27;;;;;;;0.00;0.00;;;;;;;20.18;100.00;101466.72;10425780;28;20388;-73
2022/08/02 21:57:28;;;;;;;0.00;0.00;;;;;;;20.29;100.00;101465.28;10428612;28;20104;-73
2022/08/02 22:02:28;;;;;;;0.08;0.08;;;;;;;20.34;100.00;101465.50;10420266;28;20104;-73
2022/08/02 22:07:29;;;;;;;0.00;0.00;;;;;;;20.25;100.00;101477.56;10422387;28;20472;-73
2022/08/02 22:12:29;;;;;;;0.00;0.00;;;;;;;20.09;100.00;101473.38;10452693;28;20396;-73
2022/08/02 22:17:29;;;;;;;0.00;0.00;;;;;;;19.92;100.00;101472.94;10448773;28;20448;-73
2022/08/02 22:22:30;;;;;;;0.00;0.00;;;;;;;19.79;100.00;101473.75;10426936;28;20156;-73
2022/08/02 22:27:30;;;;;;;0.00;0.00;;;;;;;19.68;100.00;101467.06;10441062;28;20021;-73
2022/08/02 22:37:49;;;;;;;0.10;0.10;;;;;;;19.57;100.00;101469.50;10424219;28;20029;-73
2022/08/02 22:42:50;;;;;;;0.10;0.10;;;;;;;19.56;100.00;101476.78;10430804;28;20017;-73
2022/08/02 22:47:50;;;;;;;0.00;0.00;;;;;;;19.50;100.00;101482.16;10448769;28;20115;-73
2022/08/02 22:52:50;;;;;;;0.00;0.00;;;;;;;19.32;100.00;101483.53;10422690;28;20029;-73
2022/08/02 22:57:51;;;;;;;0.10;0.10;;;;;;;19.29;100.00;101481.25;10433959;28;20025;-74
2022/08/02 23:02:51;;;;;;;0.10;0.10;;;;;;;19.29;100.00;101478.53;10433802;28;20491;-73
2022/08/02 23:07:52;;;;;;;0.00;0.00;;;;;;;19.34;100.00;101475.22;10417212;28;20060;-73
2022/08/02 23:12:55;;;;;;;0.00;0.00;;;;;;;19.46;100.00;101476.34;10423303;28;20029;-73